sensor_id;sensor_type;location;lat;lon;timestamp;P1;durP1;ratioP1;P2;durP2;ratioP2
54705;SDS011;40603;48.774;8.916;2023-02-08T00:00:22;23.85;;;10.45;;
54705;SDS011;40603;48.774;8.916;2023-02-08T00:02:48;22.35;;;10.13;;
54705;SDS011;40603;48.774;8.916;2023-02-08T00:05:14;22.10;;;9.50;;
54705;SDS011;40603;48.774;8.916;2023-02-08T00:07:39;22.75;;;10.50;;
54705;SDS011;40603;48.774;8.916;2023-02-08T00:10:05;18.52;;;9.23;;
54705;SDS011;40603;48.774;8.916;2023-02-08T00:12:31;18.63;;;9.45;;
54705;SDS011;40603;48.774;8.916;2023-02-08T00:14:57;18.95;;;9.15;;
54705;SDS011;40603;48.774;8.916;2023-02-08T00:17:23;20.95;;;9.25;;
54705;SDS011;40603;48.774;8.916;2023-02-08T00:19:48;21.40;;;9.88;;
54705;SDS011;40603;48.774;8.916;2023-02-08T00:22:13;21.95;;;10.07;;
54705;SDS011;40603;48.774;8.916;2023-02-08T00:24:39;16.60;;;8.68;;
54705;SDS011;40603;48.774;8.916;2023-02-08T00:27:04;18.92;;;9.75;;
54705;SDS011;40603;48.774;8.916;2023-02-08T00:29:29;18.83;;;8.60;;
54705;SDS011;40603;48.774;8.916;2023-02-08T00:31:55;26.80;;;10.30;;
54705;SDS011;40603;48.774;8.916;2023-02-08T00:34:20;22.75;;;8.95;;
54705;SDS011;40603;48.774;8.916;2023-02-08T00:36:45;18.42;;;9.15;;
54705;SDS011;40603;48.774;8.916;2023-02-08T00:39:11;19.30;;;9.27;;
54705;SDS011;40603;48.774;8.916;2023-02-08T00:41:36;20.10;;;9.13;;
54705;SDS011;40603;48.774;8.916;2023-02-08T00:44:01;23.48;;;10.15;;
54705;SDS011;40603;48.774;8.916;2023-02-08T00:46:27;21.77;;;9.82;;
54705;SDS011;40603;48.774;8.916;2023-02-08T00:48:52;20.25;;;9.68;;
54705;SDS011;40603;48.774;8.916;2023-02-08T00:51:18;18.08;;;9.40;;
54705;SDS011;40603;48.774;8.916;2023-02-08T00:53:44;21.15;;;10.05;;
54705;SDS011;40603;48.774;8.916;2023-02-08T00:56:10;23.83;;;9.82;;
54705;SDS011;40603;48.774;8.916;2023-02-08T00:58:36;23.13;;;9.82;;
54705;SDS011;40603;48.774;8.916;2023-02-08T01:01:02;22.05;;;9.90;;
54705;SDS011;40603;48.774;8.916;2023-02-08T01:03:28;18.00;;;8.27;;
54705;SDS011;40603;48.774;8.916;2023-02-08T01:05:55;19.27;;;9.70;;
54705;SDS011;40603;48.774;8.916;2023-02-08T01:08:24;20.17;;;9.55;;
54705;SDS011;40603;48.774;8.916;2023-02-08T01:10:49;19.17;;;9.20;;
54705;SDS011;40603;48.774;8.916;2023-02-08T01:13:15;21.52;;;10.02;;
54705;SDS011;40603;48.774;8.916;2023-02-08T01:15:40;18.98;;;9.15;;
54705;SDS011;40603;48.774;8.916;2023-02-08T01:18:06;16.35;;;9.25;;
54705;SDS011;40603;48.774;8.916;2023-02-08T01:20:33;20.23;;;9.50;;
54705;SDS011;40603;48.774;8.916;2023-02-08T01:22:59;16.92;;;9.63;;
54705;SDS011;40603;48.774;8.916;2023-02-08T01:25:24;18.77;;;9.35;;
54705;SDS011;40603;48.774;8.916;2023-02-08T01:27:49;17.45;;;9.15;;
54705;SDS011;40603;48.774;8.916;2023-02-08T01:30:15;17.08;;;9.77;;
54705;SDS011;40603;48.774;8.916;2023-02-08T01:32:41;18.00;;;9.85;;
54705;SDS011;40603;48.774;8.916;2023-02-08T01:35:06;20.25;;;9.52;;
54705;SDS011;40603;48.774;8.916;2023-02-08T01:37:32;17.17;;;8.55;;
54705;SDS011;40603;48.774;8.916;2023-02-08T01:39:57;19.10;;;9.23;;
54705;SDS011;40603;48.774;8.916;2023-02-08T01:42:22;25.02;;;9.55;;
54705;SDS011;40603;48.774;8.916;2023-02-08T01:47:46;19.83;;;8.55;;
54705;SDS011;40603;48.774;8.916;2023-02-08T01:50:17;18.85;;;8.73;;
54705;SDS011;40603;48.774;8.916;2023-02-08T01:52:44;19.70;;;8.65;;
54705;SDS011;40603;48.774;8.916;2023-02-08T01:55:27;15.80;;;8.50;;
54705;SDS011;40603;48.774;8.916;2023-02-08T01:57:56;18.38;;;9.38;;
54705;SDS011;40603;48.774;8.916;2023-02-08T02:00:24;22.15;;;9.10;;
54705;SDS011;40603;48.774;8.916;2023-02-08T02:02:50;21.38;;;8.85;;
54705;SDS011;40603;48.774;8.916;2023-02-08T02:05:18;22.17;;;9.23;;
54705;SDS011;40603;48.774;8.916;2023-02-08T02:07:44;15.77;;;9.15;;
54705;SDS011;40603;48.774;8.916;2023-02-08T02:10:24;17.45;;;8.23;;
54705;SDS011;40603;48.774;8.916;2023-02-08T02:13:00;22.30;;;9.38;;
54705;SDS011;40603;48.774;8.916;2023-02-08T02:15:27;16.65;;;8.38;;
54705;SDS011;40603;48.774;8.916;2023-02-08T02:17:52;19.50;;;9.18;;
54705;SDS011;40603;48.774;8.916;2023-02-08T02:20:29;18.70;;;9.07;;
54705;SDS011;40603;48.774;8.916;2023-02-08T02:29:14;17.60;;;8.82;;
54705;SDS011;40603;48.774;8.916;2023-02-08T02:42:29;18.35;;;10.02;;
54705;SDS011;40603;48.774;8.916;2023-02-08T02:45:22;18.40;;;8.20;;
54705;SDS011;40603;48.774;8.916;2023-02-08T02:48:00;15.90;;;8.48;;
54705;SDS011;40603;48.774;8.916;2023-02-08T02:50:39;15.70;;;8.88;;
54705;SDS011;40603;48.774;8.916;2023-02-08T02:55:42;15.65;;;8.32;;
54705;SDS011;40603;48.774;8.916;2023-02-08T02:58:11;22.02;;;7.80;;
54705;SDS011;40603;48.774;8.916;2023-02-08T03:00:41;18.60;;;9.02;;
54705;SDS011;40603;48.774;8.916;2023-02-08T03:03:12;19.35;;;8.40;;
54705;SDS011;40603;48.774;8.916;2023-02-08T03:05:45;15.45;;;8.70;;
54705;SDS011;40603;48.774;8.916;2023-02-08T03:19:01;18.40;;;8.55;;
54705;SDS011;40603;48.774;8.916;2023-02-08T03:21:37;17.00;;;7.20;;
54705;SDS011;40603;48.774;8.916;2023-02-08T03:30:27;17.75;;;7.45;;
54705;SDS011;40603;48.774;8.916;2023-02-08T03:33:01;22.45;;;8.68;;
54705;SDS011;40603;48.774;8.916;2023-02-08T03:35:39;15.38;;;8.25;;
54705;SDS011;40603;48.774;8.916;2023-02-08T03:38:09;17.73;;;9.10;;
54705;SDS011;40603;48.774;8.916;2023-02-08T03:40:38;20.58;;;8.75;;
54705;SDS011;40603;48.774;8.916;2023-02-08T03:43:10;14.20;;;7.70;;
54705;SDS011;40603;48.774;8.916;2023-02-08T03:45:41;14.57;;;8.27;;
54705;SDS011;40603;48.774;8.916;2023-02-08T03:48:10;17.58;;;8.48;;
54705;SDS011;40603;48.774;8.916;2023-02-08T03:50:38;25.92;;;9.23;;
54705;SDS011;40603;48.774;8.916;2023-02-08T03:53:04;16.20;;;8.43;;
54705;SDS011;40603;48.774;8.916;2023-02-08T03:55:32;19.50;;;8.55;;
54705;SDS011;40603;48.774;8.916;2023-02-08T04:01:01;18.15;;;9.02;;
54705;SDS011;40603;48.774;8.916;2023-02-08T04:03:29;17.40;;;8.68;;
54705;SDS011;40603;48.774;8.916;2023-02-08T04:05:56;16.33;;;8.38;;
54705;SDS011;40603;48.774;8.916;2023-02-08T04:08:21;14.80;;;7.95;;
54705;SDS011;40603;48.774;8.916;2023-02-08T04:10:47;18.08;;;8.43;;
54705;SDS011;40603;48.774;8.916;2023-02-08T04:13:12;17.98;;;8.23;;
54705;SDS011;40603;48.774;8.916;2023-02-08T04:15:38;15.82;;;7.65;;
54705;SDS011;40603;48.774;8.916;2023-02-08T04:18:03;15.70;;;7.82;;
54705;SDS011;40603;48.774;8.916;2023-02-08T04:20:28;16.17;;;8.00;;
54705;SDS011;40603;48.774;8.916;2023-02-08T04:22:54;14.63;;;8.25;;
54705;SDS011;40603;48.774;8.916;2023-02-08T04:25:19;16.23;;;8.63;;
54705;SDS011;40603;48.774;8.916;2023-02-08T04:27:44;16.23;;;8.52;;
54705;SDS011;40603;48.774;8.916;2023-02-08T04:30:10;15.30;;;8.13;;
54705;SDS011;40603;48.774;8.916;2023-02-08T04:32:36;15.65;;;7.00;;
54705;SDS011;40603;48.774;8.916;2023-02-08T04:35:01;16.27;;;8.23;;
54705;SDS011;40603;48.774;8.916;2023-02-08T04:37:26;14.77;;;7.72;;
54705;SDS011;40603;48.774;8.916;2023-02-08T04:39:52;17.58;;;8.32;;
54705;SDS011;40603;48.774;8.916;2023-02-08T04:42:17;15.77;;;8.13;;
54705;SDS011;40603;48.774;8.916;2023-02-08T04:44:42;17.60;;;7.32;;
54705;SDS011;40603;48.774;8.916;2023-02-08T04:47:08;15.25;;;7.53;;
54705;SDS011;40603;48.774;8.916;2023-02-08T04:49:33;15.18;;;8.40;;
54705;SDS011;40603;48.774;8.916;2023-02-08T04:51:58;18.95;;;8.88;;
54705;SDS011;40603;48.774;8.916;2023-02-08T04:54:24;17.27;;;8.70;;
54705;SDS011;40603;48.774;8.916;2023-02-08T04:56:49;21.45;;;8.90;;
54705;SDS011;40603;48.774;8.916;2023-02-08T04:59:14;20.58;;;9.27;;
54705;SDS011;40603;48.774;8.916;2023-02-08T05:01:40;18.48;;;8.90;;
54705;SDS011;40603;48.774;8.916;2023-02-08T05:04:05;18.30;;;9.23;;
54705;SDS011;40603;48.774;8.916;2023-02-08T05:06:30;19.75;;;8.98;;
54705;SDS011;40603;48.774;8.916;2023-02-08T05:08:56;17.73;;;8.55;;
54705;SDS011;40603;48.774;8.916;2023-02-08T05:11:22;23.63;;;10.00;;
54705;SDS011;40603;48.774;8.916;2023-02-08T05:13:48;22.00;;;9.30;;
54705;SDS011;40603;48.774;8.916;2023-02-08T05:16:13;20.08;;;8.60;;
54705;SDS011;40603;48.774;8.916;2023-02-08T05:18:39;21.13;;;9.55;;
54705;SDS011;40603;48.774;8.916;2023-02-08T05:21:05;18.40;;;8.40;;
54705;SDS011;40603;48.774;8.916;2023-02-08T05:23:30;17.42;;;9.20;;
54705;SDS011;40603;48.774;8.916;2023-02-08T05:25:56;16.23;;;8.68;;
54705;SDS011;40603;48.774;8.916;2023-02-08T05:28:21;19.02;;;9.07;;
54705;SDS011;40603;48.774;8.916;2023-02-08T05:30:47;15.73;;;7.70;;
54705;SDS011;40603;48.774;8.916;2023-02-08T05:33:12;17.25;;;9.25;;
54705;SDS011;40603;48.774;8.916;2023-02-08T05:35:37;19.75;;;9.32;;
54705;SDS011;40603;48.774;8.916;2023-02-08T05:38:03;24.35;;;9.55;;
54705;SDS011;40603;48.774;8.916;2023-02-08T05:40:28;16.15;;;8.02;;
54705;SDS011;40603;48.774;8.916;2023-02-08T05:42:54;22.60;;;9.25;;
54705;SDS011;40603;48.774;8.916;2023-02-08T05:45:19;21.60;;;9.20;;
54705;SDS011;40603;48.774;8.916;2023-02-08T05:47:44;19.80;;;8.82;;
54705;SDS011;40603;48.774;8.916;2023-02-08T05:50:11;19.50;;;8.02;;
54705;SDS011;40603;48.774;8.916;2023-02-08T05:52:37;18.42;;;9.20;;
54705;SDS011;40603;48.774;8.916;2023-02-08T05:55:02;17.02;;;8.43;;
54705;SDS011;40603;48.774;8.916;2023-02-08T05:57:28;19.08;;;8.65;;
54705;SDS011;40603;48.774;8.916;2023-02-08T05:59:53;19.45;;;8.95;;
54705;SDS011;40603;48.774;8.916;2023-02-08T06:02:18;19.83;;;9.07;;
54705;SDS011;40603;48.774;8.916;2023-02-08T06:04:44;18.25;;;8.80;;
54705;SDS011;40603;48.774;8.916;2023-02-08T06:07:10;20.20;;;9.07;;
54705;SDS011;40603;48.774;8.916;2023-02-08T06:09:35;16.42;;;8.43;;
54705;SDS011;40603;48.774;8.916;2023-02-08T06:12:00;23.73;;;8.73;;
54705;SDS011;40603;48.774;8.916;2023-02-08T06:14:25;23.05;;;8.88;;
54705;SDS011;40603;48.774;8.916;2023-02-08T06:16:51;19.02;;;9.50;;
54705;SDS011;40603;48.774;8.916;2023-02-08T06:19:16;23.15;;;9.32;;
54705;SDS011;40603;48.774;8.916;2023-02-08T06:21:42;16.45;;;8.35;;
54705;SDS011;40603;48.774;8.916;2023-02-08T06:24:07;18.42;;;9.15;;
54705;SDS011;40603;48.774;8.916;2023-02-08T06:26:34;21.25;;;8.43;;
54705;SDS011;40603;48.774;8.916;2023-02-08T06:28:59;16.08;;;8.65;;
54705;SDS011;40603;48.774;8.916;2023-02-08T06:31:25;17.63;;;8.52;;
54705;SDS011;40603;48.774;8.916;2023-02-08T06:33:50;17.00;;;9.20;;
54705;SDS011;40603;48.774;8.916;2023-02-08T06:36:15;26.92;;;11.27;;
54705;SDS011;40603;48.774;8.916;2023-02-08T06:38:41;23.58;;;10.40;;
54705;SDS011;40603;48.774;8.916;2023-02-08T06:41:06;19.08;;;9.93;;
54705;SDS011;40603;48.774;8.916;2023-02-08T06:43:31;20.10;;;9.98;;
54705;SDS011;40603;48.774;8.916;2023-02-08T06:45:57;20.55;;;9.98;;
54705;SDS011;40603;48.774;8.916;2023-02-08T06:48:22;23.15;;;10.25;;
54705;SDS011;40603;48.774;8.916;2023-02-08T06:50:47;22.52;;;10.23;;
54705;SDS011;40603;48.774;8.916;2023-02-08T06:53:16;21.80;;;11.18;;
54705;SDS011;40603;48.774;8.916;2023-02-08T06:55:46;19.33;;;9.50;;
54705;SDS011;40603;48.774;8.916;2023-02-08T06:58:12;24.05;;;10.30;;
54705;SDS011;40603;48.774;8.916;2023-02-08T07:00:37;21.48;;;9.32;;
54705;SDS011;40603;48.774;8.916;2023-02-08T07:03:03;18.48;;;9.88;;
54705;SDS011;40603;48.774;8.916;2023-02-08T07:05:28;18.65;;;9.57;;
54705;SDS011;40603;48.774;8.916;2023-02-08T07:07:54;24.15;;;10.63;;
54705;SDS011;40603;48.774;8.916;2023-02-08T07:10:19;20.02;;;9.88;;
54705;SDS011;40603;48.774;8.916;2023-02-08T07:12:44;21.85;;;10.10;;
54705;SDS011;40603;48.774;8.916;2023-02-08T07:15:10;22.02;;;10.48;;
54705;SDS011;40603;48.774;8.916;2023-02-08T07:17:37;23.20;;;10.20;;
54705;SDS011;40603;48.774;8.916;2023-02-08T07:20:02;18.55;;;9.40;;
54705;SDS011;40603;48.774;8.916;2023-02-08T07:22:28;25.50;;;10.60;;
54705;SDS011;40603;48.774;8.916;2023-02-08T07:24:53;20.15;;;9.63;;
54705;SDS011;40603;48.774;8.916;2023-02-08T07:27:19;20.52;;;10.05;;
54705;SDS011;40603;48.774;8.916;2023-02-08T07:29:44;19.38;;;9.85;;
54705;SDS011;40603;48.774;8.916;2023-02-08T07:32:09;24.20;;;9.98;;
54705;SDS011;40603;48.774;8.916;2023-02-08T07:34:35;23.65;;;10.38;;
54705;SDS011;40603;48.774;8.916;2023-02-08T07:37:02;18.80;;;9.52;;
54705;SDS011;40603;48.774;8.916;2023-02-08T07:39:27;22.95;;;11.02;;
54705;SDS011;40603;48.774;8.916;2023-02-08T07:41:55;19.02;;;10.32;;
54705;SDS011;40603;48.774;8.916;2023-02-08T07:44:20;24.73;;;11.13;;
54705;SDS011;40603;48.774;8.916;2023-02-08T07:46:46;22.30;;;11.30;;
54705;SDS011;40603;48.774;8.916;2023-02-08T07:49:11;23.08;;;10.57;;
54705;SDS011;40603;48.774;8.916;2023-02-08T07:51:36;19.10;;;10.38;;
54705;SDS011;40603;48.774;8.916;2023-02-08T07:54:02;24.50;;;11.25;;
54705;SDS011;40603;48.774;8.916;2023-02-08T07:56:27;35.33;;;11.35;;
54705;SDS011;40603;48.774;8.916;2023-02-08T07:58:53;18.92;;;10.63;;
54705;SDS011;40603;48.774;8.916;2023-02-08T08:01:18;30.25;;;12.10;;
54705;SDS011;40603;48.774;8.916;2023-02-08T08:03:43;23.23;;;10.85;;
54705;SDS011;40603;48.774;8.916;2023-02-08T08:06:09;23.52;;;11.45;;
54705;SDS011;40603;48.774;8.916;2023-02-08T08:08:34;22.75;;;11.25;;
54705;SDS011;40603;48.774;8.916;2023-02-08T08:11:00;24.80;;;12.15;;
54705;SDS011;40603;48.774;8.916;2023-02-08T08:13:25;22.83;;;10.98;;
54705;SDS011;40603;48.774;8.916;2023-02-08T08:15:50;26.70;;;11.38;;
54705;SDS011;40603;48.774;8.916;2023-02-08T08:18:16;27.27;;;12.38;;
54705;SDS011;40603;48.774;8.916;2023-02-08T08:20:41;26.70;;;11.45;;
54705;SDS011;40603;48.774;8.916;2023-02-08T08:23:06;20.65;;;9.40;;
54705;SDS011;40603;48.774;8.916;2023-02-08T08:25:32;28.02;;;9.35;;
54705;SDS011;40603;48.774;8.916;2023-02-08T08:27:58;20.50;;;9.18;;
54705;SDS011;40603;48.774;8.916;2023-02-08T08:30:25;22.90;;;10.40;;
54705;SDS011;40603;48.774;8.916;2023-02-08T08:32:50;18.13;;;9.02;;
54705;SDS011;40603;48.774;8.916;2023-02-08T08:35:15;22.45;;;10.30;;
54705;SDS011;40603;48.774;8.916;2023-02-08T08:37:41;18.80;;;9.43;;
54705;SDS011;40603;48.774;8.916;2023-02-08T08:40:06;29.88;;;10.32;;
54705;SDS011;40603;48.774;8.916;2023-02-08T08:42:33;21.08;;;10.27;;
54705;SDS011;40603;48.774;8.916;2023-02-08T08:44:59;20.55;;;9.32;;
54705;SDS011;40603;48.774;8.916;2023-02-08T08:47:24;20.77;;;8.95;;
54705;SDS011;40603;48.774;8.916;2023-02-08T08:49:49;21.63;;;9.57;;
54705;SDS011;40603;48.774;8.916;2023-02-08T08:52:15;27.95;;;10.55;;
54705;SDS011;40603;48.774;8.916;2023-02-08T08:54:41;20.85;;;9.65;;
54705;SDS011;40603;48.774;8.916;2023-02-08T08:57:06;26.17;;;10.40;;
54705;SDS011;40603;48.774;8.916;2023-02-08T08:59:31;21.77;;;9.27;;
54705;SDS011;40603;48.774;8.916;2023-02-08T09:01:57;28.67;;;10.15;;
54705;SDS011;40603;48.774;8.916;2023-02-08T09:04:22;17.50;;;8.70;;
54705;SDS011;40603;48.774;8.916;2023-02-08T09:06:48;20.67;;;9.20;;
54705;SDS011;40603;48.774;8.916;2023-02-08T09:09:15;23.08;;;9.77;;
54705;SDS011;40603;48.774;8.916;2023-02-08T09:11:41;20.60;;;9.27;;
54705;SDS011;40603;48.774;8.916;2023-02-08T09:14:06;18.60;;;8.07;;
54705;SDS011;40603;48.774;8.916;2023-02-08T09:16:32;22.52;;;8.93;;
54705;SDS011;40603;48.774;8.916;2023-02-08T09:19:04;19.42;;;8.88;;
54705;SDS011;40603;48.774;8.916;2023-02-08T09:21:30;20.35;;;8.60;;
54705;SDS011;40603;48.774;8.916;2023-02-08T09:23:56;19.00;;;8.93;;
54705;SDS011;40603;48.774;8.916;2023-02-08T09:26:21;19.33;;;8.73;;
54705;SDS011;40603;48.774;8.916;2023-02-08T09:28:47;19.90;;;8.43;;
54705;SDS011;40603;48.774;8.916;2023-02-08T09:31:19;14.32;;;7.05;;
54705;SDS011;40603;48.774;8.916;2023-02-08T09:33:47;18.95;;;8.25;;
54705;SDS011;40603;48.774;8.916;2023-02-08T09:36:13;19.75;;;8.27;;
54705;SDS011;40603;48.774;8.916;2023-02-08T09:38:39;16.35;;;7.35;;
54705;SDS011;40603;48.774;8.916;2023-02-08T09:43:45;16.17;;;7.63;;
54705;SDS011;40603;48.774;8.916;2023-02-08T09:46:14;16.63;;;8.38;;
54705;SDS011;40603;48.774;8.916;2023-02-08T09:48:41;16.48;;;7.10;;
54705;SDS011;40603;48.774;8.916;2023-02-08T09:54:06;17.52;;;7.32;;
54705;SDS011;40603;48.774;8.916;2023-02-08T09:56:33;19.92;;;8.48;;
54705;SDS011;40603;48.774;8.916;2023-02-08T09:59:01;14.50;;;8.25;;
54705;SDS011;40603;48.774;8.916;2023-02-08T10:01:28;21.20;;;8.30;;
54705;SDS011;40603;48.774;8.916;2023-02-08T10:06:42;15.30;;;7.30;;
54705;SDS011;40603;48.774;8.916;2023-02-08T10:09:09;20.50;;;7.45;;
54705;SDS011;40603;48.774;8.916;2023-02-08T10:20:19;12.13;;;6.60;;
54705;SDS011;40603;48.774;8.916;2023-02-08T10:33:19;13.38;;;6.25;;
54705;SDS011;40603;48.774;8.916;2023-02-08T10:35:48;14.80;;;7.15;;
54705;SDS011;40603;48.774;8.916;2023-02-08T10:40:55;14.05;;;7.05;;
54705;SDS011;40603;48.774;8.916;2023-02-08T10:43:26;18.60;;;7.35;;
54705;SDS011;40603;48.774;8.916;2023-02-08T10:51:23;16.30;;;8.32;;
54705;SDS011;40603;48.774;8.916;2023-02-08T10:53:49;15.15;;;7.05;;
54705;SDS011;40603;48.774;8.916;2023-02-08T10:59:00;15.23;;;7.55;;
54705;SDS011;40603;48.774;8.916;2023-02-08T11:01:31;19.42;;;8.23;;
54705;SDS011;40603;48.774;8.916;2023-02-08T11:04:00;13.48;;;7.03;;
54705;SDS011;40603;48.774;8.916;2023-02-08T11:06:30;17.70;;;7.47;;
54705;SDS011;40603;48.774;8.916;2023-02-08T11:08:55;13.02;;;7.32;;
54705;SDS011;40603;48.774;8.916;2023-02-08T11:11:23;16.55;;;8.18;;
54705;SDS011;40603;48.774;8.916;2023-02-08T11:13:50;21.30;;;8.63;;
54705;SDS011;40603;48.774;8.916;2023-02-08T11:16:24;18.30;;;8.45;;
54705;SDS011;40603;48.774;8.916;2023-02-08T11:18:54;17.63;;;7.80;;
54705;SDS011;40603;48.774;8.916;2023-02-08T11:21:27;17.45;;;8.70;;
54705;SDS011;40603;48.774;8.916;2023-02-08T11:23:57;17.98;;;8.02;;
54705;SDS011;40603;48.774;8.916;2023-02-08T11:26:38;27.83;;;8.73;;
54705;SDS011;40603;48.774;8.916;2023-02-08T11:29:17;14.38;;;7.43;;
54705;SDS011;40603;48.774;8.916;2023-02-08T11:31:55;18.98;;;8.15;;
54705;SDS011;40603;48.774;8.916;2023-02-08T11:34:29;16.73;;;7.85;;
54705;SDS011;40603;48.774;8.916;2023-02-08T11:36:57;16.98;;;8.40;;
54705;SDS011;40603;48.774;8.916;2023-02-08T11:39:28;14.57;;;7.68;;
54705;SDS011;40603;48.774;8.916;2023-02-08T11:41:59;15.20;;;7.90;;
54705;SDS011;40603;48.774;8.916;2023-02-08T11:44:35;15.50;;;7.82;;
54705;SDS011;40603;48.774;8.916;2023-02-08T11:47:02;17.42;;;7.93;;
54705;SDS011;40603;48.774;8.916;2023-02-08T11:49:35;17.00;;;8.45;;
54705;SDS011;40603;48.774;8.916;2023-02-08T11:52:03;19.92;;;7.80;;
54705;SDS011;40603;48.774;8.916;2023-02-08T11:54:31;15.75;;;7.95;;
54705;SDS011;40603;48.774;8.916;2023-02-08T11:57:00;15.68;;;6.97;;
54705;SDS011;40603;48.774;8.916;2023-02-08T11:59:27;14.80;;;7.63;;
54705;SDS011;40603;48.774;8.916;2023-02-08T12:01:53;12.85;;;7.20;;
54705;SDS011;40603;48.774;8.916;2023-02-08T12:04:19;13.65;;;7.40;;
54705;SDS011;40603;48.774;8.916;2023-02-08T12:07:01;16.48;;;7.30;;
54705;SDS011;40603;48.774;8.916;2023-02-08T12:12:20;17.63;;;8.25;;
54705;SDS011;40603;48.774;8.916;2023-02-08T12:14:54;15.20;;;7.88;;
54705;SDS011;40603;48.774;8.916;2023-02-08T12:26:10;15.80;;;7.90;;
54705;SDS011;40603;48.774;8.916;2023-02-08T12:28:45;15.40;;;8.20;;
54705;SDS011;40603;48.774;8.916;2023-02-08T12:34:17;17.20;;;8.15;;
54705;SDS011;40603;48.774;8.916;2023-02-08T12:36:54;12.63;;;6.97;;
54705;SDS011;40603;48.774;8.916;2023-02-08T12:39:58;14.50;;;7.15;;
54705;SDS011;40603;48.774;8.916;2023-02-08T12:43:09;13.75;;;7.82;;
54705;SDS011;40603;48.774;8.916;2023-02-08T12:45:58;15.45;;;8.05;;
54705;SDS011;40603;48.774;8.916;2023-02-08T12:51:00;19.02;;;8.40;;
54705;SDS011;40603;48.774;8.916;2023-02-08T12:53:37;17.58;;;8.25;;
54705;SDS011;40603;48.774;8.916;2023-02-08T12:56:13;17.27;;;7.35;;
54705;SDS011;40603;48.774;8.916;2023-02-08T12:58:48;17.33;;;8.35;;
54705;SDS011;40603;48.774;8.916;2023-02-08T13:04:02;15.40;;;7.95;;
54705;SDS011;40603;48.774;8.916;2023-02-08T13:06:41;22.15;;;7.25;;
54705;SDS011;40603;48.774;8.916;2023-02-08T13:09:25;15.25;;;7.28;;
54705;SDS011;40603;48.774;8.916;2023-02-08T13:12:13;12.35;;;6.20;;
54705;SDS011;40603;48.774;8.916;2023-02-08T13:17:18;13.73;;;7.00;;
54705;SDS011;40603;48.774;8.916;2023-02-08T13:19:55;17.33;;;7.63;;
54705;SDS011;40603;48.774;8.916;2023-02-08T13:22:24;20.88;;;6.63;;
54705;SDS011;40603;48.774;8.916;2023-02-08T13:24:49;13.20;;;6.68;;
54705;SDS011;40603;48.774;8.916;2023-02-08T13:27:16;13.68;;;6.45;;
54705;SDS011;40603;48.774;8.916;2023-02-08T13:29:43;13.30;;;6.25;;
54705;SDS011;40603;48.774;8.916;2023-02-08T13:32:16;12.60;;;5.85;;
54705;SDS011;40603;48.774;8.916;2023-02-08T13:34:50;15.90;;;5.50;;
54705;SDS011;40603;48.774;8.916;2023-02-08T13:37:19;12.65;;;5.78;;
54705;SDS011;40603;48.774;8.916;2023-02-08T13:39:48;12.15;;;5.32;;
54705;SDS011;40603;48.774;8.916;2023-02-08T13:42:28;8.55;;;4.57;;
54705;SDS011;40603;48.774;8.916;2023-02-08T13:44:57;13.85;;;4.68;;
54705;SDS011;40603;48.774;8.916;2023-02-08T13:47:27;13.85;;;4.63;;
54705;SDS011;40603;48.774;8.916;2023-02-08T13:49:59;8.57;;;4.63;;
54705;SDS011;40603;48.774;8.916;2023-02-08T13:57:57;8.10;;;4.75;;
54705;SDS011;40603;48.774;8.916;2023-02-08T14:02:57;9.55;;;4.60;;
54705;SDS011;40603;48.774;8.916;2023-02-08T14:05:34;11.93;;;4.90;;
54705;SDS011;40603;48.774;8.916;2023-02-08T14:08:23;8.40;;;4.75;;
54705;SDS011;40603;48.774;8.916;2023-02-08T14:18:59;7.97;;;4.32;;
54705;SDS011;40603;48.774;8.916;2023-02-08T14:21:29;8.57;;;4.13;;
54705;SDS011;40603;48.774;8.916;2023-02-08T14:24:00;18.42;;;4.28;;
54705;SDS011;40603;48.774;8.916;2023-02-08T14:26:28;9.13;;;4.10;;
54705;SDS011;40603;48.774;8.916;2023-02-08T14:28:54;6.60;;;4.13;;
54705;SDS011;40603;48.774;8.916;2023-02-08T14:31:23;12.50;;;5.63;;
54705;SDS011;40603;48.774;8.916;2023-02-08T14:34:00;7.70;;;3.92;;
54705;SDS011;40603;48.774;8.916;2023-02-08T14:36:34;8.02;;;4.10;;
54705;SDS011;40603;48.774;8.916;2023-02-08T14:39:06;10.68;;;4.80;;
54705;SDS011;40603;48.774;8.916;2023-02-08T14:47:02;9.30;;;4.55;;
54705;SDS011;40603;48.774;8.916;2023-02-08T14:49:40;7.07;;;3.95;;
54705;SDS011;40603;48.774;8.916;2023-02-08T14:52:11;9.00;;;4.00;;
54705;SDS011;40603;48.774;8.916;2023-02-08T14:54:45;11.15;;;4.15;;
54705;SDS011;40603;48.774;8.916;2023-02-08T14:57:29;7.80;;;4.10;;
54705;SDS011;40603;48.774;8.916;2023-02-08T15:00:01;10.27;;;4.55;;
54705;SDS011;40603;48.774;8.916;2023-02-08T15:02:29;10.25;;;4.60;;
54705;SDS011;40603;48.774;8.916;2023-02-08T15:04:55;7.65;;;4.13;;
54705;SDS011;40603;48.774;8.916;2023-02-08T15:10:01;12.60;;;4.32;;
54705;SDS011;40603;48.774;8.916;2023-02-08T15:12:33;9.38;;;4.05;;
54705;SDS011;40603;48.774;8.916;2023-02-08T15:15:00;7.78;;;4.30;;
54705;SDS011;40603;48.774;8.916;2023-02-08T15:17:35;9.32;;;4.47;;
54705;SDS011;40603;48.774;8.916;2023-02-08T15:20:05;11.75;;;4.65;;
54705;SDS011;40603;48.774;8.916;2023-02-08T15:22:37;9.05;;;4.85;;
54705;SDS011;40603;48.774;8.916;2023-02-08T15:25:20;12.43;;;4.57;;
54705;SDS011;40603;48.774;8.916;2023-02-08T15:27:50;10.93;;;4.80;;
54705;SDS011;40603;48.774;8.916;2023-02-08T15:32:49;8.65;;;4.90;;
54705;SDS011;40603;48.774;8.916;2023-02-08T15:35:16;13.23;;;5.65;;
54705;SDS011;40603;48.774;8.916;2023-02-08T15:37:44;14.48;;;5.10;;
54705;SDS011;40603;48.774;8.916;2023-02-08T15:42:46;10.15;;;4.95;;
54705;SDS011;40603;48.774;8.916;2023-02-08T15:45:19;11.80;;;4.68;;
54705;SDS011;40603;48.774;8.916;2023-02-08T15:47:48;11.98;;;5.90;;
54705;SDS011;40603;48.774;8.916;2023-02-08T15:50:16;11.10;;;5.40;;
54705;SDS011;40603;48.774;8.916;2023-02-08T15:52:42;11.63;;;5.45;;
54705;SDS011;40603;48.774;8.916;2023-02-08T15:55:11;9.07;;;4.97;;
54705;SDS011;40603;48.774;8.916;2023-02-08T15:57:41;16.30;;;5.80;;
54705;SDS011;40603;48.774;8.916;2023-02-08T16:00:19;15.25;;;5.20;;
54705;SDS011;40603;48.774;8.916;2023-02-08T16:02:49;14.75;;;5.97;;
54705;SDS011;40603;48.774;8.916;2023-02-08T16:05:18;13.95;;;6.53;;
54705;SDS011;40603;48.774;8.916;2023-02-08T16:07:44;13.40;;;6.90;;
54705;SDS011;40603;48.774;8.916;2023-02-08T16:12:51;17.50;;;8.05;;
54705;SDS011;40603;48.774;8.916;2023-02-08T16:18:04;15.52;;;7.32;;
54705;SDS011;40603;48.774;8.916;2023-02-08T16:20:31;18.55;;;8.02;;
54705;SDS011;40603;48.774;8.916;2023-02-08T16:22:59;18.23;;;7.18;;
54705;SDS011;40603;48.774;8.916;2023-02-08T16:25:42;15.48;;;7.28;;
54705;SDS011;40603;48.774;8.916;2023-02-08T16:28:21;15.45;;;7.55;;
54705;SDS011;40603;48.774;8.916;2023-02-08T16:30:55;14.80;;;8.13;;
54705;SDS011;40603;48.774;8.916;2023-02-08T16:33:22;15.68;;;7.93;;
54705;SDS011;40603;48.774;8.916;2023-02-08T16:35:48;23.17;;;7.82;;
54705;SDS011;40603;48.774;8.916;2023-02-08T16:38:18;21.27;;;8.13;;
54705;SDS011;40603;48.774;8.916;2023-02-08T16:40:46;20.63;;;8.82;;
54705;SDS011;40603;48.774;8.916;2023-02-08T16:45:39;18.52;;;8.18;;
54705;SDS011;40603;48.774;8.916;2023-02-08T16:48:04;16.92;;;8.52;;
54705;SDS011;40603;48.774;8.916;2023-02-08T16:50:50;16.33;;;7.72;;
54705;SDS011;40603;48.774;8.916;2023-02-08T16:53:15;16.92;;;8.23;;
54705;SDS011;40603;48.774;8.916;2023-02-08T16:55:41;15.43;;;7.07;;
54705;SDS011;40603;48.774;8.916;2023-02-08T16:58:11;19.13;;;8.70;;
54705;SDS011;40603;48.774;8.916;2023-02-08T17:00:37;15.30;;;8.13;;